This is the latest recevied weather packets stored in our database for station/object CRYC. If no packets are shown the sender has not sent any weather packets the latest 10 day(s).
| Time | Temp. | Humidity | Pressure | Rain* | Wind** | Luminosity | Snow |
|---|---|---|---|---|---|---|---|
| 1777680443 | 13.89° C | - | - | 0 mm | 0 m/s | - | - |
| 1777679840 | 14.44° C | - | - | 0 mm | 0 m/s | - | - |
| 1777679234 | 14.44° C | - | - | 0 mm | 0 m/s | - | - |
| 1777678631 | 15° C | - | - | 0 mm | 0 m/s | - | - |
| 1777678025 | 15.56° C | - | - | 0 mm | 0 m/s | - | - |
| 1777677417 | 16.11° C | - | - | 0 mm | 0.45 m/s, 153° | - | - |
| 1777676816 | 16.11° C | - | - | 0 mm | 0 m/s | - | - |
| 1777676210 | 16.67° C | - | - | 0 mm | 0.45 m/s, 174° | - | - |
| 1777675606 | 17.22° C | - | - | 0 mm | 0 m/s | - | - |
| 1777675000 | 18.89° C | - | - | 0 mm | 0 m/s | - | - |
| 1777674394 | 18.89° C | - | - | 0 mm | 0.89 m/s, 127° | - | - |
| 1777673786 | 18.89° C | - | - | 0 mm | 4.47 m/s, 260° | - | - |
| 1777673181 | 20° C | - | - | 0 mm | 3.13 m/s, 243° | - | - |
| 1777672577 | 20° C | - | - | 0 mm | 0 m/s | - | - |
| 1777670161 | 21.11° C | - | - | 0 mm | 3.58 m/s, 252° | - | - |
| 1777669558 | 20.56° C | - | - | 0 mm | 3.58 m/s, 207° | - | - |
| 1777668952 | 21.11° C | - | - | 0 mm | 3.13 m/s, 245° | - | - |
| 1777668348 | 21.67° C | - | - | 0 mm | 3.13 m/s, 243° | - | - |
| 1777667743 | 21.11° C | - | - | 0 mm | 4.02 m/s, 252° | - | - |
| 1777667138 | 21.11° C | - | - | 0 mm | 3.13 m/s, 259° | - | - |
| 1777666534 | 21.11° C | - | - | 0 mm | 0.89 m/s, 263° | - | - |
| 1777665928 | 21.67° C | - | - | 0 mm | 2.24 m/s, 274° | - | - |
| 1777665324 | 21.11° C | - | - | 0 mm | 2.68 m/s, 270° | - | - |
| 1777664721 | 21.67° C | - | - | 0 mm | 2.24 m/s, 264° | - | - |
| 1777664113 | 21.11° C | - | - | 0 mm | 4.02 m/s, 253° | - | - |
* Rain latest hour (hover to see other rain measurements)
** Current wind speed in m/s (hover to see current wind gust speed)